Time;durP1;ratioP1;P1;durP2;ratioP2;P2;SDS_P1;SDS_P2;PMS_P1;PMS_P2;Temp;Humidity;BMP_temperature;BMP_pressure;BME280_temperature;BME280_humidity;BME280_pressure;Samples;Min_cycle;Max_cycle;Signal;HPM_P1;HPM_P2
2024/01/23 00:00:28;;;;;;;17.17;4.63;;;;;;;;;;5054073;28;20041;-68
2024/01/23 00:02:55;;;;;;;10.32;4.38;;;;;;;;;;5052524;28;20477;-66
2024/01/23 00:05:21;;;;;;;14.45;5.15;;;;;;;;;;5064492;28;20036;-66
2024/01/23 00:07:47;;;;;;;21.85;5.13;;;;;;;;;;5065893;28;20037;-66
2024/01/23 00:10:13;;;;;;;14.35;4.72;;;;;;;;;;5060291;28;20037;-66
2024/01/23 00:12:39;;;;;;;14.38;5.03;;;;;;;;;;5065736;28;20067;-66
2024/01/23 00:15:05;;;;;;;11.82;4.07;;;;;;;;;;5047797;28;20215;-66
2024/01/23 00:17:32;;;;;;;11.40;4.63;;;;;;;;;;5062626;28;20115;-67
2024/01/23 00:19:58;;;;;;;16.63;5.35;;;;;;;;;;5068039;28;20593;-66
2024/01/23 00:22:24;;;;;;;17.13;4.97;;;;;;;;;;5063911;28;20124;-66
2024/01/23 00:24:50;;;;;;;15.38;5.53;;;;;;;;;;5066503;28;20047;-66
2024/01/23 00:27:16;;;;;;;16.88;4.78;;;;;;;;;;5065028;28;20060;-66
2024/01/23 00:29:42;;;;;;;16.02;4.65;;;;;;;;;;5067304;28;20040;-66
2024/01/23 00:32:08;;;;;;;16.40;4.47;;;;;;;;;;5067833;28;20037;-66
2024/01/23 00:34:34;;;;;;;19.00;5.53;;;;;;;;;;5067184;28;20044;-66
2024/01/23 00:37:02;;;;;;;18.17;4.72;;;;;;;;;;5072208;28;20120;-66
2024/01/23 00:39:29;;;;;;;16.98;4.80;;;;;;;;;;5069385;28;20508;-66
2024/01/23 00:41:55;;;;;;;15.65;5.03;;;;;;;;;;5066043;28;20033;-66
2024/01/23 00:44:21;;;;;;;17.42;4.82;;;;;;;;;;5066656;28;20374;-66
2024/01/23 00:46:47;;;;;;;10.00;4.18;;;;;;;;;;5069161;28;20048;-66
2024/01/23 00:49:13;;;;;;;17.95;5.70;;;;;;;;;;5069256;28;20138;-66
2024/01/23 00:51:40;;;;;;;13.68;3.95;;;;;;;;;;5054984;28;20187;-67
2024/01/23 00:54:06;;;;;;;16.15;5.53;;;;;;;;;;5056505;28;20080;-66
2024/01/23 00:56:32;;;;;;;14.48;4.85;;;;;;;;;;5057719;28;20047;-66
2024/01/23 00:58:58;;;;;;;11.93;4.40;;;;;;;;;;5059859;28;20123;-67
2024/01/23 01:01:24;;;;;;;13.52;5.07;;;;;;;;;;5052914;28;20088;-66
2024/01/23 01:03:50;;;;;;;15.95;4.38;;;;;;;;;;5054680;28;20043;-66
2024/01/23 01:06:16;;;;;;;21.13;6.32;;;;;;;;;;5060439;28;20055;-66
2024/01/23 01:08:42;;;;;;;15.52;5.00;;;;;;;;;;5061568;28;20420;-66
2024/01/23 01:11:09;;;;;;;17.75;4.70;;;;;;;;;;5077120;28;20043;-66
2024/01/23 01:13:36;;;;;;;10.85;5.00;;;;;;;;;;5065622;28;20692;-66
2024/01/23 01:16:02;;;;;;;33.00;5.72;;;;;;;;;;5070612;28;20127;-66
2024/01/23 01:18:28;;;;;;;15.52;4.97;;;;;;;;;;5068430;28;20044;-66
2024/01/23 01:20:55;;;;;;;17.08;5.28;;;;;;;;;;5071457;28;20040;-67
2024/01/23 01:23:21;;;;;;;11.52;5.07;;;;;;;;;;5070646;28;20028;-66
2024/01/23 01:25:47;;;;;;;16.25;5.60;;;;;;;;;;5066631;28;20440;-66
2024/01/23 01:28:14;;;;;;;15.05;5.00;;;;;;;;;;5066921;28;20040;-66
2024/01/23 01:30:40;;;;;;;12.23;5.00;;;;;;;;;;5068449;28;20071;-66
2024/01/23 01:33:06;;;;;;;13.43;5.45;;;;;;;;;;5067505;28;20054;-65
2024/01/23 01:35:32;;;;;;;13.85;5.18;;;;;;;;;;5069520;28;20090;-66
2024/01/23 01:37:59;;;;;;;16.60;5.40;;;;;;;;;;5066318;28;20143;-66
2024/01/23 01:40:25;;;;;;;19.27;5.15;;;;;;;;;;5081066;28;20044;-66
2024/01/23 01:42:53;;;;;;;20.35;6.03;;;;;;;;;;5068247;28;20049;-66
2024/01/23 01:45:19;;;;;;;15.20;6.30;;;;;;;;;;5069770;28;20048;-66
2024/01/23 01:47:47;;;;;;;13.48;4.88;;;;;;;;;;5066624;28;20040;-66
2024/01/23 01:50:13;;;;;;;13.10;5.32;;;;;;;;;;5069230;28;20044;-66
2024/01/23 01:52:41;;;;;;;21.88;6.28;;;;;;;;;;5067754;28;20142;-65
2024/01/23 01:55:08;;;;;;;13.52;4.82;;;;;;;;;;5066984;28;20044;-66
2024/01/23 01:57:38;;;;;;;8.98;4.95;;;;;;;;;;5070548;28;20036;-66
2024/01/23 02:00:06;;;;;;;23.75;5.43;;;;;;;;;;5071151;28;20043;-65
2024/01/23 02:02:32;;;;;;;9.75;3.78;;;;;;;;;;5069926;28;20040;-67
2024/01/23 02:04:58;;;;;;;13.45;4.53;;;;;;;;;;5070274;28;20238;-66
2024/01/23 02:07:24;;;;;;;12.23;4.93;;;;;;;;;;5064875;28;20149;-65
2024/01/23 02:09:51;;;;;;;21.75;5.32;;;;;;;;;;5066348;28;20083;-66
2024/01/23 02:12:17;;;;;;;12.10;4.95;;;;;;;;;;5070699;28;20171;-66
2024/01/23 02:14:43;;;;;;;16.38;5.20;;;;;;;;;;5069565;28;20522;-66
2024/01/23 02:17:09;;;;;;;26.33;6.78;;;;;;;;;;5069607;28;20033;-68
2024/01/23 02:19:35;;;;;;;13.60;6.70;;;;;;;;;;5069928;28;20216;-66
2024/01/23 02:22:01;;;;;;;14.82;6.93;;;;;;;;;;5069641;28;20051;-66
2024/01/23 02:24:27;;;;;;;20.30;5.50;;;;;;;;;;5065426;28;20044;-66
2024/01/23 02:26:53;;;;;;;22.33;5.97;;;;;;;;;;5070240;28;20362;-67
2024/01/23 02:29:20;;;;;;;13.18;4.57;;;;;;;;;;5065824;28;20376;-66
2024/01/23 02:31:46;;;;;;;14.13;6.05;;;;;;;;;;5067056;28;20557;-67
2024/01/23 02:34:12;;;;;;;17.35;5.68;;;;;;;;;;5060841;28;20136;-67
2024/01/23 02:36:40;;;;;;;12.30;4.95;;;;;;;;;;5066661;28;20036;-66
2024/01/23 02:39:07;;;;;;;16.13;5.45;;;;;;;;;;5070138;28;20074;-66
2024/01/23 02:41:33;;;;;;;17.42;6.20;;;;;;;;;;5067640;28;20064;-66
2024/01/23 02:43:59;;;;;;;19.17;6.15;;;;;;;;;;5067401;28;20052;-66
2024/01/23 02:46:25;;;;;;;18.25;5.88;;;;;;;;;;5068919;28;20044;-66
2024/01/23 02:48:52;;;;;;;18.38;5.43;;;;;;;;;;5069155;28;20028;-66
2024/01/23 02:51:19;;;;;;;26.15;6.00;;;;;;;;;;5063563;28;20166;-67
2024/01/23 02:53:45;;;;;;;18.08;5.68;;;;;;;;;;5063632;28;20076;-66
2024/01/23 02:56:11;;;;;;;18.83;5.95;;;;;;;;;;5048737;28;20036;-65
2024/01/23 02:58:39;;;;;;;25.08;6.18;;;;;;;;;;5059700;28;20042;-66
2024/01/23 03:01:05;;;;;;;18.98;5.53;;;;;;;;;;5061329;28;20040;-66
2024/01/23 03:03:31;;;;;;;17.20;5.50;;;;;;;;;;5060256;28;20077;-66
2024/01/23 03:05:57;;;;;;;11.95;4.75;;;;;;;;;;5059314;28;20050;-66
2024/01/23 03:08:23;;;;;;;20.23;5.75;;;;;;;;;;5063710;28;20114;-67
2024/01/23 03:10:50;;;;;;;20.40;5.85;;;;;;;;;;5056746;28;20041;-66
2024/01/23 03:13:16;;;;;;;16.88;5.57;;;;;;;;;;5066480;28;20102;-66
2024/01/23 03:15:42;;;;;;;23.33;5.35;;;;;;;;;;5068564;28;20572;-66
2024/01/23 03:18:08;;;;;;;21.85;6.03;;;;;;;;;;5067336;28;20037;-66
2024/01/23 03:20:35;;;;;;;15.85;5.65;;;;;;;;;;5067489;28;20102;-66
2024/01/23 03:23:01;;;;;;;20.77;5.72;;;;;;;;;;5065036;28;20499;-66
2024/01/23 03:25:27;;;;;;;18.60;6.72;;;;;;;;;;5068255;28;20070;-66
2024/01/23 03:27:53;;;;;;;21.15;5.60;;;;;;;;;;5070218;28;20032;-66
2024/01/23 03:30:32;;;;;;;13.70;5.95;;;;;;;;;;5069132;28;20037;-66
2024/01/23 03:32:59;;;;;;;18.27;5.78;;;;;;;;;;5067974;28;20470;-67
2024/01/23 03:35:25;;;;;;;19.05;6.15;;;;;;;;;;5068807;28;20105;-66
2024/01/23 03:37:52;;;;;;;13.27;5.88;;;;;;;;;;5046507;28;20086;-66
2024/01/23 03:40:18;;;;;;;18.65;5.78;;;;;;;;;;5068431;28;20123;-65
2024/01/23 03:42:44;;;;;;;19.08;6.07;;;;;;;;;;5049876;28;20088;-66
2024/01/23 03:45:10;;;;;;;15.85;5.45;;;;;;;;;;5067595;28;20404;-66
2024/01/23 03:47:36;;;;;;;16.90;5.78;;;;;;;;;;5068191;28;20037;-66
2024/01/23 03:50:03;;;;;;;19.40;6.43;;;;;;;;;;5068508;28;20493;-67
2024/01/23 03:52:29;;;;;;;19.75;5.78;;;;;;;;;;5061256;28;20072;-66
2024/01/23 03:54:56;;;;;;;21.33;6.63;;;;;;;;;;5065258;28;20048;-66
2024/01/23 03:57:22;;;;;;;16.15;5.25;;;;;;;;;;5054532;28;20578;-66
2024/01/23 03:59:48;;;;;;;20.23;6.18;;;;;;;;;;5062792;28;20041;-66
2024/01/23 04:02:14;;;;;;;27.85;7.18;;;;;;;;;;5062976;28;20514;-66
2024/01/23 04:04:40;;;;;;;23.98;6.38;;;;;;;;;;5055161;28;20040;-66
2024/01/23 04:07:07;;;;;;;11.65;4.20;;;;;;;;;;5068869;28;20036;-66
2024/01/23 04:09:33;;;;;;;15.77;5.80;;;;;;;;;;5067551;28;20037;-66
2024/01/23 04:11:59;;;;;;;16.45;5.72;;;;;;;;;;5060284;28;20051;-66
2024/01/23 04:14:25;;;;;;;14.98;6.15;;;;;;;;;;5071749;28;20044;-66
2024/01/23 04:16:51;;;;;;;14.18;5.32;;;;;;;;;;5073030;28;20040;-66
2024/01/23 04:19:17;;;;;;;17.48;5.47;;;;;;;;;;5071360;28;20048;-66
2024/01/23 04:21:44;;;;;;;24.80;5.57;;;;;;;;;;5069131;28;20040;-67
2024/01/23 04:24:10;;;;;;;11.98;6.35;;;;;;;;;;5071769;28;20155;-66
2024/01/23 04:26:37;;;;;;;16.98;6.80;;;;;;;;;;5068550;28;20033;-66
2024/01/23 04:29:03;;;;;;;13.05;5.15;;;;;;;;;;5069390;28;20063;-66
2024/01/23 04:31:30;;;;;;;16.83;5.95;;;;;;;;;;5070085;28;20087;-66
2024/01/23 04:33:56;;;;;;;22.83;6.75;;;;;;;;;;5072566;28;20129;-67
2024/01/23 04:36:22;;;;;;;27.70;5.75;;;;;;;;;;5070644;28;20066;-66
2024/01/23 04:38:49;;;;;;;31.67;6.47;;;;;;;;;;5073061;28;20086;-66
2024/01/23 04:41:15;;;;;;;17.63;5.13;;;;;;;;;;5071357;28;20044;-66
2024/01/23 04:43:42;;;;;;;18.65;5.75;;;;;;;;;;5072861;28;20131;-66
2024/01/23 04:46:08;;;;;;;16.40;5.13;;;;;;;;;;5067577;28;20037;-66
2024/01/23 04:48:34;;;;;;;19.30;5.72;;;;;;;;;;5064090;28;20048;-67
2024/01/23 04:51:01;;;;;;;21.38;6.45;;;;;;;;;;5065338;28;20120;-66
2024/01/23 04:53:32;;;;;;;26.40;6.78;;;;;;;;;;5063251;28;20090;-67
2024/01/23 04:55:58;;;;;;;18.00;6.25;;;;;;;;;;5055456;28;20480;-66
2024/01/23 04:58:24;;;;;;;28.30;8.30;;;;;;;;;;5061903;28;20504;-66
2024/01/23 05:00:50;;;;;;;28.88;7.55;;;;;;;;;;5071391;28;20044;-66
2024/01/23 05:03:16;;;;;;;12.07;5.22;;;;;;;;;;5071514;28;20043;-66
2024/01/23 05:05:43;;;;;;;16.48;7.60;;;;;;;;;;5049478;28;20036;-67
2024/01/23 05:08:09;;;;;;;19.50;6.70;;;;;;;;;;5061327;28;20155;-66
2024/01/23 05:10:35;;;;;;;19.80;6.75;;;;;;;;;;5068507;28;20081;-66
2024/01/23 05:13:01;;;;;;;14.20;6.05;;;;;;;;;;5063775;28;20310;-66
2024/01/23 05:15:27;;;;;;;34.92;7.47;;;;;;;;;;5069678;28;20536;-66
2024/01/23 05:17:54;;;;;;;26.40;7.90;;;;;;;;;;5061285;28;20045;-66
2024/01/23 05:20:20;;;;;;;19.38;6.70;;;;;;;;;;5070259;28;20048;-66
2024/01/23 05:22:47;;;;;;;14.23;5.93;;;;;;;;;;5070052;28;20471;-66
2024/01/23 05:25:13;;;;;;;20.92;6.43;;;;;;;;;;5061622;28;20040;-66
2024/01/23 05:27:39;;;;;;;19.30;6.68;;;;;;;;;;5051915;28;20051;-66
2024/01/23 05:30:06;;;;;;;14.00;6.57;;;;;;;;;;5071283;28;20041;-66
2024/01/23 05:32:33;;;;;;;25.17;8.63;;;;;;;;;;5069412;28;20041;-67
2024/01/23 05:35:03;;;;;;;31.80;7.80;;;;;;;;;;5061963;28;20036;-67
2024/01/23 05:37:29;;;;;;;21.13;6.40;;;;;;;;;;5071368;28;20044;-66
2024/01/23 05:39:56;;;;;;;22.38;7.60;;;;;;;;;;5070915;28;20059;-66
2024/01/23 05:42:22;;;;;;;18.08;8.88;;;;;;;;;;5069892;28;20052;-66
2024/01/23 05:44:48;;;;;;;32.33;8.73;;;;;;;;;;5069855;28;20068;-66
2024/01/23 05:47:14;;;;;;;21.15;6.63;;;;;;;;;;5069515;28;20036;-66
2024/01/23 05:49:40;;;;;;;17.13;5.80;;;;;;;;;;5064041;28;20537;-66
2024/01/23 05:52:06;;;;;;;23.08;8.75;;;;;;;;;;5067105;28;20128;-66
2024/01/23 05:54:32;;;;;;;21.13;6.93;;;;;;;;;;5047244;28;20403;-66
2024/01/23 05:56:59;;;;;;;21.15;6.80;;;;;;;;;;5049263;28;20052;-66
2024/01/23 05:59:25;;;;;;;23.75;7.75;;;;;;;;;;5062857;28;20539;-66
2024/01/23 06:01:51;;;;;;;18.02;6.90;;;;;;;;;;5066540;28;20428;-66
2024/01/23 06:04:17;;;;;;;18.35;6.93;;;;;;;;;;5059517;28;20037;-67
2024/01/23 06:06:44;;;;;;;20.38;7.13;;;;;;;;;;5039411;28;20478;-65
2024/01/23 06:09:13;;;;;;;25.15;7.25;;;;;;;;;;5053984;28;20083;-66
2024/01/23 06:11:39;;;;;;;23.20;7.53;;;;;;;;;;5056320;28;20117;-66
2024/01/23 06:14:06;;;;;;;12.98;7.35;;;;;;;;;;5054642;28;20083;-65
2024/01/23 06:16:32;;;;;;;22.75;6.38;;;;;;;;;;5057553;28;20040;-67
2024/01/23 06:18:58;;;;;;;28.15;8.65;;;;;;;;;;5067760;28;20041;-67
2024/01/23 06:21:24;;;;;;;17.25;6.75;;;;;;;;;;5062994;28;20129;-66
2024/01/23 06:23:50;;;;;;;16.45;6.68;;;;;;;;;;5066010;28;20051;-65
2024/01/23 06:26:17;;;;;;;18.85;7.00;;;;;;;;;;5056705;28;20125;-66
2024/01/23 06:28:44;;;;;;;23.58;6.65;;;;;;;;;;5068185;28;20036;-67
2024/01/23 06:31:10;;;;;;;21.98;7.40;;;;;;;;;;5062480;28;20067;-68
2024/01/23 06:33:36;;;;;;;26.27;7.82;;;;;;;;;;5056991;28;20041;-66
2024/01/23 06:36:03;;;;;;;19.15;7.60;;;;;;;;;;5065904;28;20113;-66
2024/01/23 06:38:29;;;;;;;27.77;7.22;;;;;;;;;;5058158;28;20040;-66
2024/01/23 06:40:55;;;;;;;24.67;8.00;;;;;;;;;;5053943;28;20064;-66
2024/01/23 06:43:21;;;;;;;24.73;8.18;;;;;;;;;;5015510;28;1114811;-66
2024/01/23 06:45:47;;;;;;;31.90;9.30;;;;;;;;;;5063684;28;20071;-66
2024/01/23 06:48:13;;;;;;;17.05;7.55;;;;;;;;;;5056703;28;20051;-66
2024/01/23 06:50:39;;;;;;;28.75;7.47;;;;;;;;;;5056880;28;20538;-67
2024/01/23 06:53:05;;;;;;;31.10;9.18;;;;;;;;;;5067066;28;20159;-66
2024/01/23 06:55:31;;;;;;;26.35;7.50;;;;;;;;;;5057030;28;20780;-66
2024/01/23 06:57:58;;;;;;;26.52;8.02;;;;;;;;;;5060011;28;20055;-66
2024/01/23 07:00:24;;;;;;;23.92;6.97;;;;;;;;;;5063830;28;20055;-66
2024/01/23 07:02:50;;;;;;;20.58;8.43;;;;;;;;;;5059841;28;20358;-67
2024/01/23 07:05:16;;;;;;;18.40;8.07;;;;;;;;;;5063868;28;20051;-67
2024/01/23 07:07:42;;;;;;;23.58;7.15;;;;;;;;;;5065267;28;20162;-66
2024/01/23 07:10:09;;;;;;;18.25;6.82;;;;;;;;;;5064169;28;20402;-65
2024/01/23 07:12:35;;;;;;;18.45;7.53;;;;;;;;;;5058397;28;20162;-66
2024/01/23 07:15:01;;;;;;;22.00;7.35;;;;;;;;;;5043798;28;20048;-67
2024/01/23 07:17:27;;;;;;;26.90;7.95;;;;;;;;;;5023814;28;20076;-67
2024/01/23 07:19:54;;;;;;;21.92;6.95;;;;;;;;;;5065676;28;20044;-66
2024/01/23 07:22:20;;;;;;;27.50;8.77;;;;;;;;;;5058296;28;20044;-67
2024/01/23 07:24:46;;;;;;;23.50;7.82;;;;;;;;;;5062042;28;20048;-66
2024/01/23 07:27:13;;;;;;;28.10;9.20;;;;;;;;;;5061362;28;20045;-66
2024/01/23 07:29:40;;;;;;;22.55;7.60;;;;;;;;;;5064036;28;20071;-67
2024/01/23 07:32:06;;;;;;;25.15;7.85;;;;;;;;;;5061336;28;20036;-67
2024/01/23 07:34:32;;;;;;;20.50;7.25;;;;;;;;;;5064465;28;20041;-67
2024/01/23 07:36:59;;;;;;;21.75;7.15;;;;;;;;;;5065062;28;20550;-67
2024/01/23 07:39:25;;;;;;;23.50;8.70;;;;;;;;;;5066141;28;20093;-67
2024/01/23 07:41:51;;;;;;;27.73;7.93;;;;;;;;;;5058078;28;20119;-67
2024/01/23 07:44:17;;;;;;;26.48;8.32;;;;;;;;;;5068385;28;20405;-66
2024/01/23 07:46:43;;;;;;;21.90;7.75;;;;;;;;;;5068095;28;20113;-67
2024/01/23 07:49:09;;;;;;;26.67;8.60;;;;;;;;;;5063555;28;20037;-67
2024/01/23 07:51:45;;;;;;;23.35;8.10;;;;;;;;;;5056406;28;20037;-67
2024/01/23 07:54:11;;;;;;;30.38;8.90;;;;;;;;;;5063358;28;20032;-66
2024/01/23 07:56:37;;;;;;;21.17;7.15;;;;;;;;;;5068183;28;20044;-67
2024/01/23 07:59:03;;;;;;;23.40;7.50;;;;;;;;;;5061293;28;20036;-66
2024/01/23 08:01:29;;;;;;;15.10;6.25;;;;;;;;;;5048466;28;20068;-67
2024/01/23 08:03:57;;;;;;;17.95;6.53;;;;;;;;;;5064104;28;20462;-67
2024/01/23 08:06:23;;;;;;;16.77;7.35;;;;;;;;;;5055242;28;20037;-66
2024/01/23 08:08:50;;;;;;;22.38;7.30;;;;;;;;;;5066235;28;20040;-67
2024/01/23 08:11:16;;;;;;;27.77;7.43;;;;;;;;;;5063846;28;20044;-66
2024/01/23 08:13:43;;;;;;;22.92;7.88;;;;;;;;;;5058954;28;20037;-65
2024/01/23 08:16:09;;;;;;;31.27;9.25;;;;;;;;;;5063957;28;20048;-67
2024/01/23 08:18:36;;;;;;;32.35;8.40;;;;;;;;;;5062580;28;20044;-67
2024/01/23 08:21:02;;;;;;;22.00;7.90;;;;;;;;;;5066667;28;20103;-65
2024/01/23 08:23:29;;;;;;;30.73;10.05;;;;;;;;;;5059544;28;20127;-67
2024/01/23 08:25:55;;;;;;;24.33;8.25;;;;;;;;;;5066529;28;20115;-67
2024/01/23 08:28:23;;;;;;;21.45;7.57;;;;;;;;;;5066267;28;20044;-67
2024/01/23 08:30:49;;;;;;;21.48;7.25;;;;;;;;;;5063159;28;20420;-66
2024/01/23 08:33:19;;;;;;;23.42;6.53;;;;;;;;;;5065472;28;20489;-66
2024/01/23 08:35:46;;;;;;;23.77;6.78;;;;;;;;;;5066655;28;20510;-66
2024/01/23 08:38:13;;;;;;;30.00;7.85;;;;;;;;;;5063288;28;20040;-66
2024/01/23 08:40:39;;;;;;;25.92;8.57;;;;;;;;;;5065679;28;20417;-66
2024/01/23 08:43:08;;;;;;;23.75;7.72;;;;;;;;;;5065795;28;20464;-67
2024/01/23 08:45:34;;;;;;;31.08;8.85;;;;;;;;;;5067430;28;20133;-67
2024/01/23 08:48:00;;;;;;;24.75;7.88;;;;;;;;;;5066070;28;20485;-65
2024/01/23 08:50:26;;;;;;;19.27;7.85;;;;;;;;;;5066974;28;20045;-67
2024/01/23 08:52:52;;;;;;;16.55;6.80;;;;;;;;;;5062785;28;20161;-66
2024/01/23 08:55:19;;;;;;;25.55;7.32;;;;;;;;;;5065208;28;20083;-66
2024/01/23 08:57:46;;;;;;;21.33;7.50;;;;;;;;;;5057100;28;20047;-66
2024/01/23 09:00:13;;;;;;;22.08;8.18;;;;;;;;;;5069072;28;20040;-66
2024/01/23 09:02:40;;;;;;;23.95;6.43;;;;;;;;;;5070950;28;20094;-66
2024/01/23 09:05:06;;;;;;;22.40;9.05;;;;;;;;;;5069877;28;20045;-67
2024/01/23 09:07:32;;;;;;;21.35;6.85;;;;;;;;;;5070966;28;20044;-65
2024/01/23 09:09:58;;;;;;;26.23;8.13;;;;;;;;;;5068292;28;20047;-66
2024/01/23 09:12:25;;;;;;;18.83;6.18;;;;;;;;;;5071205;28;20032;-66
2024/01/23 09:14:51;;;;;;;15.63;6.38;;;;;;;;;;5070988;28;20102;-67
2024/01/23 09:17:17;;;;;;;24.45;5.78;;;;;;;;;;5071900;28;20443;-67
2024/01/23 09:19:43;;;;;;;19.15;5.60;;;;;;;;;;5071779;28;20059;-68
2024/01/23 09:22:10;;;;;;;22.40;7.03;;;;;;;;;;5070796;28;20036;-66
2024/01/23 09:24:36;;;;;;;16.65;7.63;;;;;;;;;;5061197;28;20041;-66
2024/01/23 09:27:03;;;;;;;16.70;6.82;;;;;;;;;;5052061;28;20044;-68
2024/01/23 09:29:30;;;;;;;19.38;6.90;;;;;;;;;;5051827;28;20053;-66
2024/01/23 09:31:57;;;;;;;24.50;7.60;;;;;;;;;;5050938;28;20588;-67
2024/01/23 09:34:23;;;;;;;20.00;6.20;;;;;;;;;;5052039;28;20446;-67
2024/01/23 09:36:49;;;;;;;17.55;6.07;;;;;;;;;;5065038;28;20116;-67
2024/01/23 09:39:15;;;;;;;17.83;6.80;;;;;;;;;;5060877;28;20546;-66
2024/01/23 09:41:46;;;;;;;17.40;8.02;;;;;;;;;;5071103;28;20032;-67
2024/01/23 09:44:13;;;;;;;21.30;6.18;;;;;;;;;;5064281;28;20048;-66
2024/01/23 09:46:39;;;;;;;17.27;6.47;;;;;;;;;;5064738;28;20062;-66
2024/01/23 09:49:05;;;;;;;15.73;6.10;;;;;;;;;;5058897;28;20036;-65
2024/01/23 09:51:32;;;;;;;20.85;6.28;;;;;;;;;;5068895;28;20450;-67
2024/01/23 09:53:59;;;;;;;18.42;6.68;;;;;;;;;;5056597;28;20125;-67
2024/01/23 09:56:25;;;;;;;16.05;6.18;;;;;;;;;;5069753;28;20413;-67
2024/01/23 09:58:51;;;;;;;15.73;6.97;;;;;;;;;;5063760;28;20055;-65
2024/01/23 10:01:18;;;;;;;22.42;7.20;;;;;;;;;;5049394;28;20142;-67
2024/01/23 10:03:48;;;;;;;15.55;7.28;;;;;;;;;;5063263;28;20093;-67
2024/01/23 10:06:15;;;;;;;18.65;6.15;;;;;;;;;;5070045;28;20032;-66
2024/01/23 10:08:41;;;;;;;21.80;7.22;;;;;;;;;;5063009;28;20513;-67
2024/01/23 10:11:10;;;;;;;21.58;7.75;;;;;;;;;;5070085;28;20044;-66
2024/01/23 10:13:39;;;;;;;16.83;6.60;;;;;;;;;;5068758;28;20040;-67
2024/01/23 10:16:05;;;;;;;17.60;5.80;;;;;;;;;;5061400;28;20106;-66
2024/01/23 10:18:31;;;;;;;16.60;6.00;;;;;;;;;;5068812;28;20405;-66
2024/01/23 10:20:58;;;;;;;15.00;7.45;;;;;;;;;;5059194;28;20048;-67
2024/01/23 10:23:24;;;;;;;19.45;6.82;;;;;;;;;;5064492;28;20050;-66
2024/01/23 10:25:50;;;;;;;16.15;6.95;;;;;;;;;;5059505;28;20358;-67
2024/01/23 10:28:17;;;;;;;18.67;6.97;;;;;;;;;;5053415;28;20067;-67
2024/01/23 10:30:45;;;;;;;22.02;7.88;;;;;;;;;;5060093;28;20049;-67
2024/01/23 10:33:11;;;;;;;29.95;6.50;;;;;;;;;;5058576;28;20040;-66
2024/01/23 10:35:37;;;;;;;24.73;7.88;;;;;;;;;;5055835;28;20099;-67
2024/01/23 10:38:05;;;;;;;17.40;7.25;;;;;;;;;;5052259;28;20571;-66
2024/01/23 10:40:32;;;;;;;23.83;7.03;;;;;;;;;;5059621;28;20040;-66
2024/01/23 10:42:58;;;;;;;20.58;7.93;;;;;;;;;;5063918;28;20049;-66
2024/01/23 10:45:25;;;;;;;27.10;8.20;;;;;;;;;;5068799;28;20041;-66
2024/01/23 10:47:52;;;;;;;19.35;6.30;;;;;;;;;;5059363;28;20037;-67
2024/01/23 10:50:20;;;;;;;22.55;8.60;;;;;;;;;;5069413;28;20045;-66
2024/01/23 10:52:47;;;;;;;19.73;6.65;;;;;;;;;;5067424;28;20048;-67
2024/01/23 10:55:16;;;;;;;18.90;7.53;;;;;;;;;;5065649;28;20055;-67
2024/01/23 10:57:46;;;;;;;28.55;6.95;;;;;;;;;;5068008;28;20052;-67
2024/01/23 11:00:14;;;;;;;17.33;7.22;;;;;;;;;;5049621;28;20542;-66
2024/01/23 11:02:52;;;;;;;20.27;7.07;;;;;;;;;;5066924;28;20045;-67
2024/01/23 11:05:23;;;;;;;18.83;6.95;;;15.70;91.70;;;;;;5060309;28;20561;-66
2024/01/23 11:08:17;;;;;;;25.02;7.75;;;10.90;99.90;;;;;;5066365;28;20060;-68
2024/01/23 11:10:50;;;;;;;19.67;7.60;;;10.90;99.90;;;;;;5059746;28;20074;-67
2024/01/23 11:13:25;;;;;;;23.30;8.05;;;11.00;99.90;;;;;;5069913;28;20047;-66
2024/01/23 11:15:52;;;;;;;17.58;7.38;;;11.20;99.90;;;;;;5056209;28;20043;-68
2024/01/23 11:18:25;;;;;;;19.52;6.85;;;11.40;99.90;;;;;;5055338;28;20174;-67
2024/01/23 11:21:03;;;;;;;23.13;7.28;;;11.60;99.90;;;;;;5050257;28;20041;-66
2024/01/23 11:23:33;;;;;;;21.73;7.05;;;11.80;99.90;;;;;;5054977;28;20455;-67
2024/01/23 11:26:01;;;;;;;17.30;6.63;;;;;;;;;;5060451;28;20107;-66
2024/01/23 11:28:28;;;;;;;21.65;5.85;;;12.40;99.90;;;;;;5059292;28;20043;-66
2024/01/23 11:31:13;;;;;;;16.00;6.40;;;;;;;;;;5061091;28;20151;-68
2024/01/23 11:33:39;;;;;;;22.90;7.47;;;13.60;99.90;;;;;;5060677;28;20044;-66
2024/01/23 11:36:12;;;;;;;23.70;6.53;;;13.70;99.90;;;;;;5065122;28;20516;-68
2024/01/23 11:38:42;;;;;;;16.77;5.88;;;13.80;99.90;;;;;;5065849;28;20048;-67
2024/01/23 11:41:27;;;;;;;15.63;5.95;;;13.70;99.90;;;;;;5060987;28;20045;-66
2024/01/23 11:44:05;;;;;;;14.95;6.53;;;13.50;99.90;;;;;;5059250;28;20045;-67
2024/01/23 11:46:35;;;;;;;17.25;5.82;;;13.40;99.90;;;;;;5061457;28;20051;-67
2024/01/23 11:49:00;;;;;;;19.75;6.43;;;13.40;99.90;;;;;;5059791;28;20364;-66
2024/01/23 11:51:30;;;;;;;23.77;6.28;;;13.40;99.90;;;;;;5062829;28;20569;-67
2024/01/23 11:53:59;;;;;;;18.88;7.05;;;13.40;99.90;;;;;;5082854;28;20048;-68
2024/01/23 11:56:27;;;;;;;27.00;7.32;;;13.40;99.90;;;;;;5065339;28;20098;-66
2024/01/23 11:58:55;;;;;;;18.92;6.55;;;13.40;99.90;;;;;;5060898;28;20457;-67
2024/01/23 12:01:23;;;;;;;20.90;7.05;;;13.50;99.90;;;;;;5050226;28;20445;-67
2024/01/23 12:03:49;;;;;;;17.27;5.65;;;13.70;99.90;;;;;;5063432;28;20546;-66
2024/01/23 12:06:16;;;;;;;16.70;5.57;;;;;;;;;;5065377;28;20040;-66
2024/01/23 12:08:43;;;;;;;19.58;6.45;;;14.00;99.90;;;;;;5060462;28;20053;-66
2024/01/23 12:11:09;;;;;;;20.02;6.97;;;;;;;;;;5059349;28;20040;-66
2024/01/23 12:13:38;;;;;;;18.00;5.90;;;;;;;;;;5060802;28;20111;-68
2024/01/23 12:16:10;;;;;;;21.13;7.22;;;14.30;99.90;;;;;;5062030;28;20036;-67
2024/01/23 12:18:36;;;;;;;20.23;6.47;;;14.70;99.90;;;;;;5061116;28;20041;-66
2024/01/23 12:21:04;;;;;;;25.30;7.00;;;14.90;99.90;;;;;;5057030;28;20048;-66
2024/01/23 12:23:31;;;;;;;14.48;5.88;;;15.10;99.90;;;;;;5051222;28;20041;-66
2024/01/23 12:25:59;;;;;;;20.08;5.93;;;15.40;99.90;;;;;;5062344;28;20044;-66
2024/01/23 12:28:25;;;;;;;16.85;6.72;;;;;;;;;;5065683;28;20508;-67
2024/01/23 12:30:51;;;;;;;20.67;6.28;;;15.60;99.90;;;;;;5067558;28;20052;-68
2024/01/23 12:33:17;;;;;;;18.60;6.68;;;15.90;99.90;;;;;;5065309;28;20032;-66
2024/01/23 12:35:47;;;;;;;16.27;5.97;;;15.90;99.90;;;;;;5058732;28;20044;-66
2024/01/23 12:38:20;;;;;;;20.17;6.95;;;15.80;99.70;;;;;;5065475;28;20049;-67
2024/01/23 12:40:47;;;;;;;16.60;5.60;;;15.60;99.40;;;;;;5059233;28;20036;-67
2024/01/23 12:43:15;;;;;;;20.42;5.50;;;15.40;99.50;;;;;;5058103;28;20056;-67
2024/01/23 12:45:42;;;;;;;13.23;6.93;;;15.10;99.40;;;;;;5058149;28;20049;-67
2024/01/23 12:48:10;;;;;;;17.13;6.60;;;14.90;99.40;;;;;;5068269;28;20044;-67
2024/01/23 12:50:37;;;;;;;19.98;5.40;;;14.60;99.40;;;;;;5070568;28;20486;-66
2024/01/23 12:53:07;;;;;;;15.85;4.60;;;14.40;99.50;;;;;;5066312;28;20382;-66
2024/01/23 12:55:33;;;;;;;20.52;5.65;;;;;;;;;;5061703;28;20052;-66
2024/01/23 12:57:59;;;;;;;12.15;5.72;;;14.20;99.60;;;;;;5065904;28;20044;-66
2024/01/23 13:00:25;;;;;;;18.38;6.47;;;13.70;99.60;;;;;;5063632;28;20116;-65
2024/01/23 13:02:54;;;;;;;21.80;6.22;;;13.50;99.60;;;;;;5063388;28;20072;-66
2024/01/23 13:05:21;;;;;;;12.40;7.40;;;13.30;99.60;;;;;;5053877;28;20086;-66
2024/01/23 13:07:49;;;;;;;16.13;5.72;;;13.10;99.60;;;;;;5069415;28;20036;-65
2024/01/23 13:10:15;;;;;;;16.08;5.78;;;12.90;99.70;;;;;;5057452;28;20041;-64
2024/01/23 13:12:42;;;;;;;20.73;6.60;;;12.80;99.80;;;;;;5062015;28;20047;-66
2024/01/23 13:15:09;;;;;;;19.88;6.40;;;;;;;;;;5066415;28;20553;-65
2024/01/23 13:17:35;;;;;;;13.48;6.00;;;12.70;99.90;;;;;;5061695;28;20426;-66
2024/01/23 13:20:05;;;;;;;20.52;7.50;;;12.40;99.90;;;;;;5060202;28;20032;-65
2024/01/23 13:22:31;;;;;;;16.55;5.72;;;12.30;99.90;;;;;;5071348;28;20059;-65
2024/01/23 13:24:57;;;;;;;19.83;5.80;;;12.10;99.90;;;;;;5056620;28;20041;-66
2024/01/23 13:27:22;;;;;;;19.88;7.88;;;12.00;99.90;;;;;;5060376;28;20114;-66
2024/01/23 13:29:49;;;;;;;12.23;5.60;;;11.90;99.90;;;;;;5070433;28;20514;-66
2024/01/23 13:32:16;;;;;;;16.20;6.53;;;;;;;;;;5064934;28;20112;-66
2024/01/23 13:34:42;;;;;;;16.38;6.07;;;;;;;;;;5067699;28;20066;-66
2024/01/23 13:37:07;;;;;;;14.32;5.53;;;11.80;99.90;;;;;;5064735;28;20048;-66
2024/01/23 13:39:33;;;;;;;25.80;7.65;;;11.40;99.90;;;;;;5067784;28;20562;-65
2024/01/23 13:41:59;;;;;;;24.98;5.97;;;11.30;99.90;;;;;;5051714;28;20052;-67
2024/01/23 13:44:25;;;;;;;19.33;6.80;;;11.20;99.90;;;;;;5065587;28;20083;-66
2024/01/23 13:46:52;;;;;;;13.98;5.90;;;;;;;;;;5067945;28;20028;-66
2024/01/23 13:49:18;;;;;;;13.20;6.22;;;;;;;;;;5064098;28;20042;-67
2024/01/23 13:51:45;;;;;;;18.25;6.13;;;;;;;;;;5065364;28;20473;-66
2024/01/23 13:54:11;;;;;;;17.10;6.10;;;;;;;;;;5067537;28;20459;-67
2024/01/23 13:56:37;;;;;;;17.85;5.75;;;;;;;;;;5064042;28;20036;-67
2024/01/23 13:59:07;;;;;;;21.38;7.32;;;;;;;;;;5062711;28;20049;-66
2024/01/23 14:01:34;;;;;;;12.88;6.10;;;;;;;;;;5067223;28;20564;-66
2024/01/23 14:04:04;;;;;;;16.38;6.15;;;;;;;;;;5063251;28;20051;-67
2024/01/23 14:06:30;;;;;;;21.60;6.82;;;;;;;;;;5059712;28;20386;-66